sensor_id;sensor_type;location;lat;lon;timestamp;pressure;altitude;pressure_sealevel;temperature;humidity
12358;BME280;6243;51.244;6.774;2023-02-13T00:00:27;150489.28;;;12.01;100.00
12358;BME280;6243;51.244;6.774;2023-02-13T00:02:53;150542.75;;;12.22;100.00
12358;BME280;6243;51.244;6.774;2023-02-13T00:05:18;150503.31;;;12.06;100.00
12358;BME280;6243;51.244;6.774;2023-02-13T00:07:44;150565.66;;;12.31;100.00
12358;BME280;6243;51.244;6.774;2023-02-13T00:10:10;150605.09;;;12.47;100.00
12358;BME280;6243;51.244;6.774;2023-02-13T00:12:37;150631.81;;;12.57;100.00
12358;BME280;6243;51.244;6.774;2023-02-13T00:15:03;150619.13;;;12.52;100.00
12358;BME280;6243;51.244;6.774;2023-02-13T00:17:29;150584.75;;;12.39;100.00
12358;BME280;6243;51.244;6.774;2023-02-13T00:19:54;150607.69;;;12.48;100.00
12358;BME280;6243;51.244;6.774;2023-02-13T00:22:20;150544.03;;;12.23;100.00
12358;BME280;6243;51.244;6.774;2023-02-13T00:24:46;150544.03;;;12.23;100.00
12358;BME280;6243;51.244;6.774;2023-02-13T00:27:11;150505.81;;;12.07;100.00
12358;BME280;6243;51.244;6.774;2023-02-13T00:29:38;150538.94;;;12.21;100.00
12358;BME280;6243;51.244;6.774;2023-02-13T00:32:04;150481.63;;;11.98;100.00
12358;BME280;6243;51.244;6.774;2023-02-13T00:34:29;150437.13;;;11.80;100.00
12358;BME280;6243;51.244;6.774;2023-02-13T00:36:55;150479.13;;;11.97;100.00
12358;BME280;6243;51.244;6.774;2023-02-13T00:39:20;150533.81;;;12.19;100.00
12358;BME280;6243;51.244;6.774;2023-02-13T00:41:46;150513.47;;;12.10;100.00
12358;BME280;6243;51.244;6.774;2023-02-13T00:44:11;150452.41;;;11.86;100.00
12358;BME280;6243;51.244;6.774;2023-02-13T00:46:38;150488.00;;;12.00;100.00
12358;BME280;6243;51.244;6.774;2023-02-13T00:49:04;150510.91;;;12.09;100.00
12358;BME280;6243;51.244;6.774;2023-02-13T00:51:29;150452.41;;;11.86;100.00
12358;BME280;6243;51.244;6.774;2023-02-13T00:53:55;150462.59;;;11.90;100.00
12358;BME280;6243;51.244;6.774;2023-02-13T00:56:21;150448.56;;;11.85;100.00
12358;BME280;6243;51.244;6.774;2023-02-13T00:58:47;150379.81;;;11.58;100.00
12358;BME280;6243;51.244;6.774;2023-02-13T01:01:12;150435.84;;;11.80;100.00
12358;BME280;6243;51.244;6.774;2023-02-13T01:03:39;150448.56;;;11.85;100.00
12358;BME280;6243;51.244;6.774;2023-02-13T01:06:05;150444.75;;;11.83;100.00
12358;BME280;6243;51.244;6.774;2023-02-13T01:08:31;150378.53;;;11.57;100.00
12358;BME280;6243;51.244;6.774;2023-02-13T01:10:57;150354.41;;;11.48;100.00
12358;BME280;6243;51.244;6.774;2023-02-13T01:13:23;150397.63;;;11.65;100.00
12358;BME280;6243;51.244;6.774;2023-02-13T01:15:49;150402.72;;;11.67;100.00
12358;BME280;6243;51.244;6.774;2023-02-13T01:18:15;150438.41;;;11.81;100.00
12358;BME280;6243;51.244;6.774;2023-02-13T01:20:43;150439.69;;;11.81;100.00
12358;BME280;6243;51.244;6.774;2023-02-13T01:23:09;150379.81;;;11.58;100.00
12358;BME280;6243;51.244;6.774;2023-02-13T01:25:38;150451.13;;;11.86;100.00
12358;BME280;6243;51.244;6.774;2023-02-13T01:28:04;150430.75;;;11.78;100.00
12358;BME280;6243;51.244;6.774;2023-02-13T01:30:29;150481.63;;;11.98;100.00
12358;BME280;6243;51.244;6.774;2023-02-13T01:32:55;150486.78;;;12.00;100.00
12358;BME280;6243;51.244;6.774;2023-02-13T01:35:20;150395.06;;;11.64;100.00
12358;BME280;6243;51.244;6.774;2023-02-13T01:37:48;150435.84;;;11.80;100.00
12358;BME280;6243;51.244;6.774;2023-02-13T01:40:14;150432.03;;;11.78;100.00
12358;BME280;6243;51.244;6.774;2023-02-13T01:42:39;150418.03;;;11.73;100.00
12358;BME280;6243;51.244;6.774;2023-02-13T01:45:18;150330.25;;;11.38;100.00
12358;BME280;6243;51.244;6.774;2023-02-13T01:47:48;150416.78;;;11.72;100.00
12358;BME280;6243;51.244;6.774;2023-02-13T01:50:16;150418.03;;;11.73;100.00
12358;BME280;6243;51.244;6.774;2023-02-13T01:52:50;150415.50;;;11.72;100.00
12358;BME280;6243;51.244;6.774;2023-02-13T01:55:18;150320.03;;;11.34;100.00
12358;BME280;6243;51.244;6.774;2023-02-13T01:57:48;150391.28;;;11.62;100.00
12358;BME280;6243;51.244;6.774;2023-02-13T02:00:16;150303.50;;;11.27;100.00
12358;BME280;6243;51.244;6.774;2023-02-13T02:02:44;150384.91;;;11.60;100.00
12358;BME280;6243;51.244;6.774;2023-02-13T02:05:12;150390.00;;;11.62;100.00
12358;BME280;6243;51.244;6.774;2023-02-13T02:07:39;150356.94;;;11.49;100.00
12358;BME280;6243;51.244;6.774;2023-02-13T02:10:11;150421.88;;;11.74;100.00
12358;BME280;6243;51.244;6.774;2023-02-13T02:12:42;150318.78;;;11.33;100.00
12358;BME280;6243;51.244;6.774;2023-02-13T02:15:10;150265.38;;;11.12;100.00
12358;BME280;6243;51.244;6.774;2023-02-13T02:17:36;150273.00;;;11.15;100.00
12358;BME280;6243;51.244;6.774;2023-02-13T02:20:12;150362.00;;;11.51;100.00
12358;BME280;6243;51.244;6.774;2023-02-13T02:23:02;150392.56;;;11.63;100.00
12358;BME280;6243;51.244;6.774;2023-02-13T02:25:50;150396.34;;;11.64;100.00
12358;BME280;6243;51.244;6.774;2023-02-13T02:28:41;150396.34;;;11.64;100.00
12358;BME280;6243;51.244;6.774;2023-02-13T02:31:50;150270.44;;;11.14;100.00
12358;BME280;6243;51.244;6.774;2023-02-13T02:34:28;150360.72;;;11.50;100.00
12358;BME280;6243;51.244;6.774;2023-02-13T02:37:16;150300.97;;;11.26;100.00
12358;BME280;6243;51.244;6.774;2023-02-13T02:39:47;150342.97;;;11.43;100.00
12358;BME280;6243;51.244;6.774;2023-02-13T02:42:25;150360.72;;;11.50;100.00
12358;BME280;6243;51.244;6.774;2023-02-13T02:44:56;150378.53;;;11.57;100.00
12358;BME280;6243;51.244;6.774;2023-02-13T02:47:32;150325.16;;;11.36;100.00
12358;BME280;6243;51.244;6.774;2023-02-13T02:50:10;150406.56;;;11.68;100.00
12358;BME280;6243;51.244;6.774;2023-02-13T02:52:44;150330.25;;;11.38;100.00
12358;BME280;6243;51.244;6.774;2023-02-13T02:55:21;150406.56;;;11.68;100.00
12358;BME280;6243;51.244;6.774;2023-02-13T02:57:49;150299.69;;;11.26;100.00
12358;BME280;6243;51.244;6.774;2023-02-13T03:00:21;150365.84;;;11.52;100.00
12358;BME280;6243;51.244;6.774;2023-02-13T03:02:50;150214.53;;;10.92;100.00
12358;BME280;6243;51.244;6.774;2023-02-13T03:05:19;150275.53;;;11.16;100.00
12358;BME280;6243;51.244;6.774;2023-02-13T03:07:45;150309.88;;;11.30;100.00
12358;BME280;6243;51.244;6.774;2023-02-13T03:10:15;150306.06;;;11.28;100.00
12358;BME280;6243;51.244;6.774;2023-02-13T03:12:45;150257.72;;;11.09;100.00
12358;BME280;6243;51.244;6.774;2023-02-13T03:15:13;150280.63;;;11.18;100.00
12358;BME280;6243;51.244;6.774;2023-02-13T03:17:38;150351.84;;;11.47;100.00
12358;BME280;6243;51.244;6.774;2023-02-13T03:20:14;150332.75;;;11.39;100.00
12358;BME280;6243;51.244;6.774;2023-02-13T03:22:54;150309.88;;;11.30;100.00
12358;BME280;6243;51.244;6.774;2023-02-13T03:25:28;150211.94;;;10.91;100.00
12358;BME280;6243;51.244;6.774;2023-02-13T03:27:57;150275.53;;;11.16;100.00
12358;BME280;6243;51.244;6.774;2023-02-13T03:30:33;150281.91;;;11.19;100.00
12358;BME280;6243;51.244;6.774;2023-02-13T03:33:09;150208.16;;;10.90;100.00
12358;BME280;6243;51.244;6.774;2023-02-13T03:35:44;150136.97;;;10.61;100.00
12358;BME280;6243;51.244;6.774;2023-02-13T03:38:17;150247.56;;;11.05;100.00
12358;BME280;6243;51.244;6.774;2023-02-13T03:40:48;150286.97;;;11.21;100.00
12358;BME280;6243;51.244;6.774;2023-02-13T03:43:16;150308.59;;;11.29;100.00
12358;BME280;6243;51.244;6.774;2023-02-13T03:45:46;150210.66;;;10.91;100.00
12358;BME280;6243;51.244;6.774;2023-02-13T03:48:14;150303.50;;;11.27;100.00
12358;BME280;6243;51.244;6.774;2023-02-13T03:50:43;150311.16;;;11.30;100.00
12358;BME280;6243;51.244;6.774;2023-02-13T03:53:11;150231.03;;;10.99;100.00
12358;BME280;6243;51.244;6.774;2023-02-13T03:55:41;150243.75;;;11.04;100.00
12358;BME280;6243;51.244;6.774;2023-02-13T03:58:13;150233.56;;;11.00;100.00
12358;BME280;6243;51.244;6.774;2023-02-13T04:00:43;150231.03;;;10.99;100.00
12358;BME280;6243;51.244;6.774;2023-02-13T04:03:14;150299.69;;;11.26;100.00
12358;BME280;6243;51.244;6.774;2023-02-13T04:05:46;150162.41;;;10.72;100.00
12358;BME280;6243;51.244;6.774;2023-02-13T04:08:13;150239.91;;;11.02;100.00
12358;BME280;6243;51.244;6.774;2023-02-13T04:10:44;150191.63;;;10.83;100.00
12358;BME280;6243;51.244;6.774;2023-02-13T04:13:14;150265.38;;;11.12;100.00
12358;BME280;6243;51.244;6.774;2023-02-13T04:15:45;150222.13;;;10.95;100.00
12358;BME280;6243;51.244;6.774;2023-02-13T04:18:15;150270.44;;;11.14;100.00
12358;BME280;6243;51.244;6.774;2023-02-13T04:20:44;150161.13;;;10.71;100.00
12358;BME280;6243;51.244;6.774;2023-02-13T04:23:11;150124.25;;;10.56;100.00
12358;BME280;6243;51.244;6.774;2023-02-13T04:25:38;150203.06;;;10.88;100.00
12358;BME280;6243;51.244;6.774;2023-02-13T04:28:04;150211.94;;;10.91;100.00
12358;BME280;6243;51.244;6.774;2023-02-13T04:30:30;150116.66;;;10.53;100.00
12358;BME280;6243;51.244;6.774;2023-02-13T04:32:56;150180.19;;;10.79;100.00
12358;BME280;6243;51.244;6.774;2023-02-13T04:35:21;150072.19;;;10.36;100.00
12358;BME280;6243;51.244;6.774;2023-02-13T04:37:48;150144.59;;;10.64;100.00
12358;BME280;6243;51.244;6.774;2023-02-13T04:40:13;150129.38;;;10.58;100.00
12358;BME280;6243;51.244;6.774;2023-02-13T04:42:39;150139.53;;;10.62;100.00
12358;BME280;6243;51.244;6.774;2023-02-13T04:45:05;150162.41;;;10.72;100.00
12358;BME280;6243;51.244;6.774;2023-02-13T04:47:31;150241.19;;;11.03;100.00
12358;BME280;6243;51.244;6.774;2023-02-13T04:49:56;150208.16;;;10.90;100.00
12358;BME280;6243;51.244;6.774;2023-02-13T04:52:22;150190.34;;;10.83;100.00
12358;BME280;6243;51.244;6.774;2023-02-13T04:54:49;150209.44;;;10.90;100.00
12358;BME280;6243;51.244;6.774;2023-02-13T04:57:14;150198.00;;;10.86;100.00
12358;BME280;6243;51.244;6.774;2023-02-13T04:59:40;150217.03;;;10.93;100.00
12358;BME280;6243;51.244;6.774;2023-02-13T05:02:05;150128.09;;;10.58;100.00
12358;BME280;6243;51.244;6.774;2023-02-13T05:04:31;150191.63;;;10.83;100.00
12358;BME280;6243;51.244;6.774;2023-02-13T05:06:56;150164.91;;;10.73;100.00
12358;BME280;6243;51.244;6.774;2023-02-13T05:09:22;150203.06;;;10.88;100.00
12358;BME280;6243;51.244;6.774;2023-02-13T05:11:51;150213.25;;;10.92;100.00
12358;BME280;6243;51.244;6.774;2023-02-13T05:14:17;150217.03;;;10.93;100.00
12358;BME280;6243;51.244;6.774;2023-02-13T05:16:42;150157.31;;;10.69;100.00
12358;BME280;6243;51.244;6.774;2023-02-13T05:19:08;150093.78;;;10.44;100.00
12358;BME280;6243;51.244;6.774;2023-02-13T05:21:33;150162.41;;;10.72;100.00
12358;BME280;6243;51.244;6.774;2023-02-13T05:23:59;150154.75;;;10.68;100.00
12358;BME280;6243;51.244;6.774;2023-02-13T05:26:24;150149.69;;;10.66;100.00
12358;BME280;6243;51.244;6.774;2023-02-13T05:28:51;150046.75;;;10.26;100.00
12358;BME280;6243;51.244;6.774;2023-02-13T05:31:16;150101.34;;;10.47;100.00
12358;BME280;6243;51.244;6.774;2023-02-13T05:33:42;150152.25;;;10.67;100.00
12358;BME280;6243;51.244;6.774;2023-02-13T05:36:08;150069.63;;;10.35;100.00
12358;BME280;6243;51.244;6.774;2023-02-13T05:38:33;150102.63;;;10.48;100.00
12358;BME280;6243;51.244;6.774;2023-02-13T05:40:59;150145.88;;;10.65;100.00
12358;BME280;6243;51.244;6.774;2023-02-13T05:43:24;150163.69;;;10.72;100.00
12358;BME280;6243;51.244;6.774;2023-02-13T05:45:51;150133.16;;;10.60;100.00
12358;BME280;6243;51.244;6.774;2023-02-13T05:48:24;150143.31;;;10.64;100.00
12358;BME280;6243;51.244;6.774;2023-02-13T05:50:50;150054.38;;;10.29;100.00
12358;BME280;6243;51.244;6.774;2023-02-13T05:53:15;150119.16;;;10.54;100.00
12358;BME280;6243;51.244;6.774;2023-02-13T05:55:41;150073.41;;;10.36;100.00
12358;BME280;6243;51.244;6.774;2023-02-13T05:58:06;150030.22;;;10.19;100.00
12358;BME280;6243;51.244;6.774;2023-02-13T06:00:32;150121.72;;;10.55;100.00
12358;BME280;6243;51.244;6.774;2023-02-13T06:02:59;149999.69;;;10.07;100.00
12358;BME280;6243;51.244;6.774;2023-02-13T06:05:24;150034.03;;;10.21;100.00
12358;BME280;6243;51.244;6.774;2023-02-13T06:07:50;150088.69;;;10.42;100.00
12358;BME280;6243;51.244;6.774;2023-02-13T06:10:15;150130.59;;;10.59;100.00
12358;BME280;6243;51.244;6.774;2023-02-13T06:12:41;150136.97;;;10.61;100.00
12358;BME280;6243;51.244;6.774;2023-02-13T06:15:07;150040.38;;;10.23;100.00
12358;BME280;6243;51.244;6.774;2023-02-13T06:17:33;150110.28;;;10.51;100.00
12358;BME280;6243;51.244;6.774;2023-02-13T06:20:00;150030.22;;;10.19;100.00
12358;BME280;6243;51.244;6.774;2023-02-13T06:22:25;150128.09;;;10.58;100.00
12358;BME280;6243;51.244;6.774;2023-02-13T06:24:51;150103.91;;;10.48;100.00
12358;BME280;6243;51.244;6.774;2023-02-13T06:27:16;150144.59;;;10.64;100.00
12358;BME280;6243;51.244;6.774;2023-02-13T06:29:42;150189.06;;;10.82;100.00
12358;BME280;6243;51.244;6.774;2023-02-13T06:32:07;150093.78;;;10.44;100.00
12358;BME280;6243;51.244;6.774;2023-02-13T06:34:33;150065.81;;;10.33;100.00
12358;BME280;6243;51.244;6.774;2023-02-13T06:36:59;150025.16;;;10.17;100.00
12358;BME280;6243;51.244;6.774;2023-02-13T06:39:25;150078.50;;;10.38;100.00
12358;BME280;6243;51.244;6.774;2023-02-13T06:41:50;150018.78;;;10.15;100.00
12358;BME280;6243;51.244;6.774;2023-02-13T06:44:16;150039.09;;;10.23;100.00
12358;BME280;6243;51.244;6.774;2023-02-13T06:46:41;149984.44;;;10.01;100.00
12358;BME280;6243;51.244;6.774;2023-02-13T06:49:08;149933.66;;;9.81;100.00
12358;BME280;6243;51.244;6.774;2023-02-13T06:51:33;149945.09;;;9.85;100.00
12358;BME280;6243;51.244;6.774;2023-02-13T06:54:00;149943.78;;;9.85;100.00
12358;BME280;6243;51.244;6.774;2023-02-13T06:56:26;149950.16;;;9.87;100.00
12358;BME280;6243;51.244;6.774;2023-02-13T06:58:51;149998.41;;;10.07;100.00
12358;BME280;6243;51.244;6.774;2023-02-13T07:01:17;149887.94;;;9.63;100.00
12358;BME280;6243;51.244;6.774;2023-02-13T07:03:42;149959.03;;;9.91;100.00
12358;BME280;6243;51.244;6.774;2023-02-13T07:06:08;150054.38;;;10.29;100.00
12358;BME280;6243;51.244;6.774;2023-02-13T07:08:33;150006.03;;;10.10;100.00
12358;BME280;6243;51.244;6.774;2023-02-13T07:11:00;149988.25;;;10.02;100.00
12358;BME280;6243;51.244;6.774;2023-02-13T07:13:26;150028.94;;;10.19;100.00
12358;BME280;6243;51.244;6.774;2023-02-13T07:15:51;150087.41;;;10.42;100.00
12358;BME280;6243;51.244;6.774;2023-02-13T07:18:17;150116.66;;;10.53;100.00
12358;BME280;6243;51.244;6.774;2023-02-13T07:20:42;150045.47;;;10.25;100.00
12358;BME280;6243;51.244;6.774;2023-02-13T07:23:08;150100.13;;;10.47;100.00
12358;BME280;6243;51.244;6.774;2023-02-13T07:25:34;149994.59;;;10.05;100.00
12358;BME280;6243;51.244;6.774;2023-02-13T07:28:02;150109.00;;;10.50;100.00
12358;BME280;6243;51.244;6.774;2023-02-13T07:30:28;150152.25;;;10.67;100.00
12358;BME280;6243;51.244;6.774;2023-02-13T07:32:57;150218.31;;;10.94;100.00
12358;BME280;6243;51.244;6.774;2023-02-13T07:35:23;150358.22;;;11.49;100.00
12358;BME280;6243;51.244;6.774;2023-02-13T07:37:48;150273.00;;;11.15;100.00
12358;BME280;6243;51.244;6.774;2023-02-13T07:40:14;150292.06;;;11.23;100.00
12358;BME280;6243;51.244;6.774;2023-02-13T07:42:39;150246.28;;;11.05;100.00
12358;BME280;6243;51.244;6.774;2023-02-13T07:45:07;150348.06;;;11.45;100.00
12358;BME280;6243;51.244;6.774;2023-02-13T07:47:33;150163.69;;;10.72;100.00
12358;BME280;6243;51.244;6.774;2023-02-13T07:49:59;150153.47;;;10.68;100.00
12358;BME280;6243;51.244;6.774;2023-02-13T07:52:24;150187.78;;;10.82;100.00
12358;BME280;6243;51.244;6.774;2023-02-13T07:54:50;150203.06;;;10.88;100.00
12358;BME280;6243;51.244;6.774;2023-02-13T07:57:16;150170.03;;;10.75;100.00
12358;BME280;6243;51.244;6.774;2023-02-13T07:59:41;150142.03;;;10.63;100.00
12358;BME280;6243;51.244;6.774;2023-02-13T08:02:10;150117.94;;;10.54;100.00
12358;BME280;6243;51.244;6.774;2023-02-13T08:04:36;150189.06;;;10.82;100.00
12358;BME280;6243;51.244;6.774;2023-02-13T08:07:02;150208.16;;;10.90;100.00
12358;BME280;6243;51.244;6.774;2023-02-13T08:09:27;150274.25;;;11.16;100.00
12358;BME280;6243;51.244;6.774;2023-02-13T08:11:53;150286.97;;;11.21;100.00
12358;BME280;6243;51.244;6.774;2023-02-13T08:14:18;150330.25;;;11.38;100.00
12358;BME280;6243;51.244;6.774;2023-02-13T08:16:44;150220.88;;;10.95;100.00
12358;BME280;6243;51.244;6.774;2023-02-13T08:19:11;150241.19;;;11.03;100.00
12358;BME280;6243;51.244;6.774;2023-02-13T08:21:36;150195.44;;;10.85;100.00
12358;BME280;6243;51.244;6.774;2023-02-13T08:24:02;150267.94;;;11.13;100.00
12358;BME280;6243;51.244;6.774;2023-02-13T08:26:30;150309.88;;;11.30;100.00
12358;BME280;6243;51.244;6.774;2023-02-13T08:28:55;150342.97;;;11.43;100.00
12358;BME280;6243;51.244;6.774;2023-02-13T08:31:21;150351.84;;;11.47;100.00
12358;BME280;6243;51.244;6.774;2023-02-13T08:33:47;150341.69;;;11.43;100.00
12358;BME280;6243;51.244;6.774;2023-02-13T08:36:13;150326.38;;;11.36;100.00
12358;BME280;6243;51.244;6.774;2023-02-13T08:38:39;150295.91;;;11.24;100.00
12358;BME280;6243;51.244;6.774;2023-02-13T08:41:04;150418.03;;;11.73;100.00
12358;BME280;6243;51.244;6.774;2023-02-13T08:43:30;150392.56;;;11.63;100.00
12358;BME280;6243;51.244;6.774;2023-02-13T08:45:57;150365.84;;;11.52;100.00
12358;BME280;6243;51.244;6.774;2023-02-13T08:48:23;150238.69;;;11.02;100.00
12358;BME280;6243;51.244;6.774;2023-02-13T08:50:48;150353.13;;;11.47;100.00
12358;BME280;6243;51.244;6.774;2023-02-13T08:53:15;150370.94;;;11.54;100.00
12358;BME280;6243;51.244;6.774;2023-02-13T08:55:41;150482.91;;;11.98;100.00
12358;BME280;6243;51.244;6.774;2023-02-13T08:58:06;150494.38;;;12.03;100.00
12358;BME280;6243;51.244;6.774;2023-02-13T09:00:32;150381.09;;;11.58;100.00
12358;BME280;6243;51.244;6.774;2023-02-13T09:02:59;150405.34;;;11.68;100.00
12358;BME280;6243;51.244;6.774;2023-02-13T09:05:25;150467.66;;;11.92;100.00
12358;BME280;6243;51.244;6.774;2023-02-13T09:07:51;150566.94;;;12.32;100.00
12358;BME280;6243;51.244;6.774;2023-02-13T09:10:18;150634.38;;;12.58;100.00
12358;BME280;6243;51.244;6.774;2023-02-13T09:12:44;150694.25;;;12.82;100.00
12358;BME280;6243;51.244;6.774;2023-02-13T09:15:16;150582.19;;;12.38;100.00
12358;BME280;6243;51.244;6.774;2023-02-13T09:17:41;150468.94;;;11.93;100.00
12358;BME280;6243;51.244;6.774;2023-02-13T09:20:07;150531.28;;;12.18;100.00
12358;BME280;6243;51.244;6.774;2023-02-13T09:22:33;150622.94;;;12.54;100.00
12358;BME280;6243;51.244;6.774;2023-02-13T09:24:58;150694.25;;;12.82;100.00
12358;BME280;6243;51.244;6.774;2023-02-13T09:27:25;150684.03;;;12.78;100.00
12358;BME280;6243;51.244;6.774;2023-02-13T09:29:51;150760.50;;;13.08;100.00
12358;BME280;6243;51.244;6.774;2023-02-13T09:32:16;150743.91;;;13.02;100.00
12358;BME280;6243;51.244;6.774;2023-02-13T09:34:42;150819.09;;;13.31;100.00
12358;BME280;6243;51.244;6.774;2023-02-13T09:37:07;150867.53;;;13.50;99.88
12358;BME280;6243;51.244;6.774;2023-02-13T09:39:32;150838.22;;;13.39;100.00
12358;BME280;6243;51.244;6.774;2023-02-13T09:41:59;150719.69;;;12.92;100.00
12358;BME280;6243;51.244;6.774;2023-02-13T09:44:30;150817.81;;;13.31;100.00
12358;BME280;6243;51.244;6.774;2023-02-13T09:47:01;150963.06;;;13.88;99.00
12358;BME280;6243;51.244;6.774;2023-02-13T09:49:32;150984.72;;;13.97;96.38
12358;BME280;6243;51.244;6.774;2023-02-13T09:51:59;151045.94;;;14.21;91.93
12358;BME280;6243;51.244;6.774;2023-02-13T09:54:26;151010.22;;;14.07;91.05
12358;BME280;6243;51.244;6.774;2023-02-13T09:56:55;151099.50;;;14.42;92.10
12358;BME280;6243;51.244;6.774;2023-02-13T09:59:34;150929.94;;;13.75;92.19
12358;BME280;6243;51.244;6.774;2023-02-13T10:02:18;151123.72;;;14.52;89.58
12358;BME280;6243;51.244;6.774;2023-02-13T10:04:51;151125.00;;;14.52;87.84
12358;BME280;6243;51.244;6.774;2023-02-13T10:07:26;151147.97;;;14.61;86.84
12358;BME280;6243;51.244;6.774;2023-02-13T10:09:59;151119.91;;;14.50;88.06
12358;BME280;6243;51.244;6.774;2023-02-13T10:12:47;151168.34;;;14.69;86.71
12358;BME280;6243;51.244;6.774;2023-02-13T10:15:27;151140.28;;;14.58;86.21
12358;BME280;6243;51.244;6.774;2023-02-13T10:17:58;151168.34;;;14.69;84.45
12358;BME280;6243;51.244;6.774;2023-02-13T10:20:27;151200.25;;;14.82;83.77
12358;BME280;6243;51.244;6.774;2023-02-13T10:22:59;151247.44;;;15.01;81.72
12358;BME280;6243;51.244;6.774;2023-02-13T10:25:32;151332.91;;;15.34;80.86
12358;BME280;6243;51.244;6.774;2023-02-13T10:28:05;151427.41;;;15.72;79.81
12358;BME280;6243;51.244;6.774;2023-02-13T10:30:40;151325.25;;;15.31;79.26
12358;BME280;6243;51.244;6.774;2023-02-13T10:33:12;151364.88;;;15.47;78.24
12358;BME280;6243;51.244;6.774;2023-02-13T10:35:41;151530.81;;;16.12;77.50
12358;BME280;6243;51.244;6.774;2023-02-13T10:38:15;151472.06;;;15.89;76.62
12358;BME280;6243;51.244;6.774;2023-02-13T10:40:51;151602.28;;;16.41;77.02
12358;BME280;6243;51.244;6.774;2023-02-13T10:43:19;151528.22;;;16.11;75.24
12358;BME280;6243;51.244;6.774;2023-02-13T10:45:55;151556.31;;;16.22;74.00
12358;BME280;6243;51.244;6.774;2023-02-13T10:48:36;151441.44;;;15.77;74.60
12358;BME280;6243;51.244;6.774;2023-02-13T10:51:06;151635.56;;;16.54;76.12
12358;BME280;6243;51.244;6.774;2023-02-13T10:53:43;151580.59;;;16.32;74.05
12358;BME280;6243;51.244;6.774;2023-02-13T10:56:23;151584.44;;;16.33;72.69
12358;BME280;6243;51.244;6.774;2023-02-13T10:58:57;151553.78;;;16.21;73.66
12358;BME280;6243;51.244;6.774;2023-02-13T11:01:32;151696.84;;;16.78;73.06
12358;BME280;6243;51.244;6.774;2023-02-13T11:04:04;151740.31;;;16.95;71.09
12358;BME280;6243;51.244;6.774;2023-02-13T11:06:31;151834.81;;;17.32;71.35
12358;BME280;6243;51.244;6.774;2023-02-13T11:08:57;151712.16;;;16.84;69.92
12358;BME280;6243;51.244;6.774;2023-02-13T11:11:32;151597.16;;;16.39;71.01
12358;BME280;6243;51.244;6.774;2023-02-13T11:14:16;151746.69;;;16.97;69.66
12358;BME280;6243;51.244;6.774;2023-02-13T11:16:48;151900.06;;;17.58;67.47
12358;BME280;6243;51.244;6.774;2023-02-13T11:19:19;151967.81;;;17.85;66.81
12358;BME280;6243;51.244;6.774;2023-02-13T11:21:52;151838.69;;;17.34;68.38
12358;BME280;6243;51.244;6.774;2023-02-13T11:24:20;151845.09;;;17.36;67.73
12358;BME280;6243;51.244;6.774;2023-02-13T11:26:50;151901.34;;;17.58;66.37
12358;BME280;6243;51.244;6.774;2023-02-13T11:29:21;151670.03;;;16.67;68.30
12358;BME280;6243;51.244;6.774;2023-02-13T11:32:00;151995.91;;;17.96;66.56
12358;BME280;6243;51.244;6.774;2023-02-13T11:34:27;152067.53;;;18.24;63.45
12358;BME280;6243;51.244;6.774;2023-02-13T11:37:08;151898.78;;;17.57;63.42
12358;BME280;6243;51.244;6.774;2023-02-13T11:39:38;151995.91;;;17.96;63.19
12358;BME280;6243;51.244;6.774;2023-02-13T11:44:37;152279.91;;;19.07;61.27
12358;BME280;6243;51.244;6.774;2023-02-13T11:47:06;152388.78;;;19.50;58.99
12358;BME280;6243;51.244;6.774;2023-02-13T11:49:33;152364.47;;;19.41;56.82
12358;BME280;6243;51.244;6.774;2023-02-13T11:52:01;152448.94;;;19.74;56.15
12358;BME280;6243;51.244;6.774;2023-02-13T11:54:30;152464.31;;;19.80;55.06
12358;BME280;6243;51.244;6.774;2023-02-13T11:56:58;152427.19;;;19.65;53.77
12358;BME280;6243;51.244;6.774;2023-02-13T11:59:25;152163.53;;;18.62;56.09
12358;BME280;6243;51.244;6.774;2023-02-13T12:02:14;151822.03;;;17.27;58.88
12358;BME280;6243;51.244;6.774;2023-02-13T12:04:39;151808.00;;;17.22;60.87
12358;BME280;6243;51.244;6.774;2023-02-13T12:07:12;151574.19;;;16.29;63.03
12358;BME280;6243;51.244;6.774;2023-02-13T12:09:39;151525.69;;;16.10;64.14
12358;BME280;6243;51.244;6.774;2023-02-13T12:12:06;151433.81;;;15.74;65.06
12358;BME280;6243;51.244;6.774;2023-02-13T12:14:37;151491.25;;;15.97;64.76
12358;BME280;6243;51.244;6.774;2023-02-13T12:17:06;151503.97;;;16.02;63.56
12358;BME280;6243;51.244;6.774;2023-02-13T12:19:39;151423.56;;;15.70;64.75
12358;BME280;6243;51.244;6.774;2023-02-13T12:22:31;151463.16;;;15.86;65.61
12358;BME280;6243;51.244;6.774;2023-02-13T12:25:22;151329.09;;;15.33;65.57
12358;BME280;6243;51.244;6.774;2023-02-13T12:27:58;151238.50;;;14.97;66.99
12358;BME280;6243;51.244;6.774;2023-02-13T12:30:41;151307.38;;;15.24;66.86
12358;BME280;6243;51.244;6.774;2023-02-13T12:33:20;151220.63;;;14.90;67.95
12358;BME280;6243;51.244;6.774;2023-02-13T12:35:56;151405.69;;;15.63;66.64
12358;BME280;6243;51.244;6.774;2023-02-13T12:38:43;151484.84;;;15.94;64.62
12358;BME280;6243;51.244;6.774;2023-02-13T12:41:16;151288.28;;;15.17;66.98
12358;BME280;6243;51.244;6.774;2023-02-13T12:44:20;151265.31;;;15.08;67.29
12358;BME280;6243;51.244;6.774;2023-02-13T12:46:57;151444.00;;;15.78;65.11
12358;BME280;6243;51.244;6.774;2023-02-13T12:49:39;151428.66;;;15.72;65.29
12358;BME280;6243;51.244;6.774;2023-02-13T12:52:21;151418.44;;;15.68;65.45
12358;BME280;6243;51.244;6.774;2023-02-13T12:55:01;151295.91;;;15.20;66.01
12358;BME280;6243;51.244;6.774;2023-02-13T12:57:45;151311.25;;;15.26;65.81
12358;BME280;6243;51.244;6.774;2023-02-13T13:00:26;151334.22;;;15.35;65.62
12358;BME280;6243;51.244;6.774;2023-02-13T13:03:20;151205.34;;;14.84;66.24
12358;BME280;6243;51.244;6.774;2023-02-13T13:06:01;151272.94;;;15.11;66.14